Terminal Aerodrome Forecast
Issued by NWS

Home | Current Version | Previous Version | Text Only | Print | Product List | Glossary Off
Versions: 1 2 3 4 5 6 7 8 9 10 11 12 13 14 15 16 17 18 19 20 21 22 23 24 25 26 27 28 29 30 31 32 33

000
FTUS43 KLOT 271740
TAFORD
TAF
KORD 271740Z 2718/2824 19010KT P6SM BKN018 BKN035
     FM272000 20010KT P6SM BKN025 BKN035
     FM272200 22010KT P6SM BKN035
     FM280000 22006KT P6SM BKN040
     FM281000 VRB03KT P6SM BKN030
     FM281500 07006KT P6SM SCT035 BKN250=

USA.gov is the U.S. government's official web portal to all federal, state and local government web resources and services.